sensor_id;sensor_type;location;lat;lon;timestamp;P1;durP1;ratioP1;P2;durP2;ratioP2
41687;SDS011;27371;42.686;23.362;2024-02-04T00:00:04;12.82;;;6.97;;
41687;SDS011;27371;42.686;23.362;2024-02-04T00:02:30;11.50;;;6.78;;
41687;SDS011;27371;42.686;23.362;2024-02-04T00:04:56;9.40;;;4.22;;
41687;SDS011;27371;42.686;23.362;2024-02-04T00:07:21;5.93;;;3.03;;
41687;SDS011;27371;42.686;23.362;2024-02-04T00:09:46;4.65;;;2.42;;
41687;SDS011;27371;42.686;23.362;2024-02-04T00:12:12;4.70;;;2.63;;
41687;SDS011;27371;42.686;23.362;2024-02-04T00:14:37;5.78;;;2.58;;
41687;SDS011;27371;42.686;23.362;2024-02-04T00:17:02;4.78;;;2.63;;
41687;SDS011;27371;42.686;23.362;2024-02-04T00:19:28;7.13;;;2.80;;
41687;SDS011;27371;42.686;23.362;2024-02-04T00:21:54;4.88;;;2.65;;
41687;SDS011;27371;42.686;23.362;2024-02-04T00:24:19;5.85;;;2.55;;
41687;SDS011;27371;42.686;23.362;2024-02-04T00:26:45;6.28;;;3.03;;
41687;SDS011;27371;42.686;23.362;2024-02-04T00:29:10;6.03;;;2.88;;
41687;SDS011;27371;42.686;23.362;2024-02-04T00:31:35;5.80;;;2.90;;
41687;SDS011;27371;42.686;23.362;2024-02-04T00:34:01;3.97;;;2.63;;
41687;SDS011;27371;42.686;23.362;2024-02-04T00:36:26;4.60;;;2.58;;
41687;SDS011;27371;42.686;23.362;2024-02-04T00:38:51;5.68;;;2.85;;
41687;SDS011;27371;42.686;23.362;2024-02-04T00:41:17;5.70;;;2.58;;
41687;SDS011;27371;42.686;23.362;2024-02-04T00:43:42;5.00;;;2.85;;
41687;SDS011;27371;42.686;23.362;2024-02-04T00:46:08;4.65;;;2.83;;
41687;SDS011;27371;42.686;23.362;2024-02-04T00:48:35;4.22;;;2.60;;
41687;SDS011;27371;42.686;23.362;2024-02-04T00:51:00;3.83;;;2.53;;
41687;SDS011;27371;42.686;23.362;2024-02-04T00:53:26;3.78;;;2.50;;
41687;SDS011;27371;42.686;23.362;2024-02-04T00:55:53;3.72;;;2.35;;
41687;SDS011;27371;42.686;23.362;2024-02-04T00:58:18;4.70;;;2.60;;
41687;SDS011;27371;42.686;23.362;2024-02-04T01:03:32;4.15;;;2.33;;
41687;SDS011;27371;42.686;23.362;2024-02-04T01:05:57;4.55;;;2.85;;
41687;SDS011;27371;42.686;23.362;2024-02-04T01:08:23;7.80;;;2.38;;
41687;SDS011;27371;42.686;23.362;2024-02-04T01:10:48;4.93;;;2.60;;
41687;SDS011;27371;42.686;23.362;2024-02-04T01:13:16;3.47;;;2.13;;
41687;SDS011;27371;42.686;23.362;2024-02-04T01:15:41;4.32;;;2.50;;
41687;SDS011;27371;42.686;23.362;2024-02-04T01:18:06;6.03;;;2.45;;
41687;SDS011;27371;42.686;23.362;2024-02-04T01:20:32;3.78;;;2.42;;
41687;SDS011;27371;42.686;23.362;2024-02-04T01:22:57;4.50;;;2.92;;
41687;SDS011;27371;42.686;23.362;2024-02-04T01:25:22;5.43;;;2.40;;
41687;SDS011;27371;42.686;23.362;2024-02-04T01:27:48;4.47;;;2.92;;
41687;SDS011;27371;42.686;23.362;2024-02-04T01:30:13;4.95;;;2.47;;
41687;SDS011;27371;42.686;23.362;2024-02-04T01:32:38;4.75;;;2.67;;
41687;SDS011;27371;42.686;23.362;2024-02-04T01:35:04;5.07;;;2.78;;
41687;SDS011;27371;42.686;23.362;2024-02-04T01:37:29;5.90;;;2.70;;
41687;SDS011;27371;42.686;23.362;2024-02-04T01:39:55;4.25;;;2.55;;
41687;SDS011;27371;42.686;23.362;2024-02-04T01:42:20;3.40;;;2.33;;
41687;SDS011;27371;42.686;23.362;2024-02-04T01:44:46;3.70;;;2.50;;
41687;SDS011;27371;42.686;23.362;2024-02-04T01:47:11;5.55;;;3.00;;
41687;SDS011;27371;42.686;23.362;2024-02-04T01:49:37;4.13;;;2.50;;
41687;SDS011;27371;42.686;23.362;2024-02-04T01:52:02;5.88;;;2.45;;
41687;SDS011;27371;42.686;23.362;2024-02-04T01:54:28;6.30;;;2.70;;
41687;SDS011;27371;42.686;23.362;2024-02-04T01:56:55;3.63;;;2.38;;
41687;SDS011;27371;42.686;23.362;2024-02-04T01:59:23;4.43;;;2.70;;
41687;SDS011;27371;42.686;23.362;2024-02-04T02:01:53;7.28;;;2.60;;
41687;SDS011;27371;42.686;23.362;2024-02-04T02:04:18;5.18;;;2.45;;
41687;SDS011;27371;42.686;23.362;2024-02-04T02:06:45;5.13;;;2.25;;
41687;SDS011;27371;42.686;23.362;2024-02-04T02:09:11;4.35;;;2.30;;
41687;SDS011;27371;42.686;23.362;2024-02-04T02:11:41;3.80;;;2.10;;
41687;SDS011;27371;42.686;23.362;2024-02-04T02:14:08;6.13;;;2.50;;
41687;SDS011;27371;42.686;23.362;2024-02-04T02:16:36;3.00;;;2.05;;
41687;SDS011;27371;42.686;23.362;2024-02-04T02:21:47;4.85;;;2.38;;
41687;SDS011;27371;42.686;23.362;2024-02-04T02:24:24;3.22;;;2.17;;
41687;SDS011;27371;42.686;23.362;2024-02-04T02:26:50;5.32;;;2.70;;
41687;SDS011;27371;42.686;23.362;2024-02-04T02:29:15;4.68;;;2.33;;
41687;SDS011;27371;42.686;23.362;2024-02-04T02:31:41;4.57;;;1.90;;
41687;SDS011;27371;42.686;23.362;2024-02-04T02:34:07;4.05;;;2.53;;
41687;SDS011;27371;42.686;23.362;2024-02-04T02:36:34;4.47;;;1.98;;
41687;SDS011;27371;42.686;23.362;2024-02-04T02:41:30;3.90;;;2.05;;
41687;SDS011;27371;42.686;23.362;2024-02-04T02:43:56;3.65;;;1.95;;
41687;SDS011;27371;42.686;23.362;2024-02-04T02:46:22;6.60;;;2.08;;
41687;SDS011;27371;42.686;23.362;2024-02-04T02:48:48;3.72;;;1.90;;
41687;SDS011;27371;42.686;23.362;2024-02-04T02:51:13;5.13;;;2.30;;
41687;SDS011;27371;42.686;23.362;2024-02-04T02:53:39;3.83;;;2.08;;
41687;SDS011;27371;42.686;23.362;2024-02-04T02:56:04;3.33;;;2.17;;
41687;SDS011;27371;42.686;23.362;2024-02-04T02:58:30;4.13;;;2.05;;
41687;SDS011;27371;42.686;23.362;2024-02-04T03:00:56;3.28;;;2.10;;
41687;SDS011;27371;42.686;23.362;2024-02-04T03:03:21;4.63;;;2.47;;
41687;SDS011;27371;42.686;23.362;2024-02-04T03:05:47;3.47;;;2.22;;
41687;SDS011;27371;42.686;23.362;2024-02-04T03:08:12;5.80;;;2.13;;
41687;SDS011;27371;42.686;23.362;2024-02-04T03:10:37;6.82;;;2.10;;
41687;SDS011;27371;42.686;23.362;2024-02-04T03:13:03;4.20;;;2.00;;
41687;SDS011;27371;42.686;23.362;2024-02-04T03:15:28;5.07;;;2.53;;
41687;SDS011;27371;42.686;23.362;2024-02-04T03:17:54;3.58;;;2.30;;
41687;SDS011;27371;42.686;23.362;2024-02-04T03:20:20;4.38;;;1.90;;
41687;SDS011;27371;42.686;23.362;2024-02-04T03:22:47;5.50;;;2.53;;
41687;SDS011;27371;42.686;23.362;2024-02-04T03:25:12;3.08;;;2.05;;
41687;SDS011;27371;42.686;23.362;2024-02-04T03:27:39;4.00;;;2.30;;
41687;SDS011;27371;42.686;23.362;2024-02-04T03:30:04;3.97;;;2.17;;
41687;SDS011;27371;42.686;23.362;2024-02-04T03:32:30;3.65;;;2.70;;
41687;SDS011;27371;42.686;23.362;2024-02-04T03:34:59;4.90;;;2.70;;
41687;SDS011;27371;42.686;23.362;2024-02-04T03:37:24;3.92;;;2.60;;
41687;SDS011;27371;42.686;23.362;2024-02-04T03:39:50;3.42;;;2.25;;
41687;SDS011;27371;42.686;23.362;2024-02-04T03:42:15;3.65;;;2.00;;
41687;SDS011;27371;42.686;23.362;2024-02-04T03:44:43;4.97;;;2.13;;
41687;SDS011;27371;42.686;23.362;2024-02-04T03:47:08;3.92;;;2.45;;
41687;SDS011;27371;42.686;23.362;2024-02-04T03:49:34;4.45;;;1.92;;
41687;SDS011;27371;42.686;23.362;2024-02-04T03:51:59;3.83;;;1.80;;
41687;SDS011;27371;42.686;23.362;2024-02-04T03:54:24;6.95;;;2.40;;
41687;SDS011;27371;42.686;23.362;2024-02-04T03:56:50;5.47;;;2.22;;
41687;SDS011;27371;42.686;23.362;2024-02-04T03:59:15;4.60;;;2.20;;
41687;SDS011;27371;42.686;23.362;2024-02-04T04:01:46;3.22;;;2.13;;
41687;SDS011;27371;42.686;23.362;2024-02-04T04:04:12;3.55;;;2.17;;
41687;SDS011;27371;42.686;23.362;2024-02-04T04:06:37;4.38;;;2.10;;
41687;SDS011;27371;42.686;23.362;2024-02-04T04:09:03;5.05;;;2.00;;
41687;SDS011;27371;42.686;23.362;2024-02-04T04:11:28;3.97;;;1.90;;
41687;SDS011;27371;42.686;23.362;2024-02-04T04:13:54;3.45;;;1.98;;
41687;SDS011;27371;42.686;23.362;2024-02-04T04:16:20;5.75;;;2.13;;
41687;SDS011;27371;42.686;23.362;2024-02-04T04:18:45;2.95;;;1.67;;
41687;SDS011;27371;42.686;23.362;2024-02-04T04:21:11;3.88;;;2.10;;
41687;SDS011;27371;42.686;23.362;2024-02-04T04:23:36;3.75;;;1.88;;
41687;SDS011;27371;42.686;23.362;2024-02-04T04:26:01;4.35;;;1.95;;
41687;SDS011;27371;42.686;23.362;2024-02-04T04:28:27;3.47;;;1.92;;
41687;SDS011;27371;42.686;23.362;2024-02-04T04:30:52;3.38;;;1.90;;
41687;SDS011;27371;42.686;23.362;2024-02-04T04:33:18;4.18;;;2.20;;
41687;SDS011;27371;42.686;23.362;2024-02-04T04:35:43;3.83;;;1.95;;
41687;SDS011;27371;42.686;23.362;2024-02-04T04:38:08;3.63;;;2.25;;
41687;SDS011;27371;42.686;23.362;2024-02-04T04:40:34;5.38;;;1.90;;
41687;SDS011;27371;42.686;23.362;2024-02-04T04:42:59;3.78;;;2.05;;
41687;SDS011;27371;42.686;23.362;2024-02-04T04:45:24;5.30;;;2.15;;
41687;SDS011;27371;42.686;23.362;2024-02-04T04:47:50;4.43;;;2.60;;
41687;SDS011;27371;42.686;23.362;2024-02-04T04:50:15;4.18;;;2.25;;
41687;SDS011;27371;42.686;23.362;2024-02-04T04:52:40;4.47;;;2.15;;
41687;SDS011;27371;42.686;23.362;2024-02-04T04:55:07;4.50;;;2.30;;
41687;SDS011;27371;42.686;23.362;2024-02-04T04:57:32;4.32;;;2.30;;
41687;SDS011;27371;42.686;23.362;2024-02-04T04:59:57;4.30;;;2.00;;
41687;SDS011;27371;42.686;23.362;2024-02-04T05:02:25;3.58;;;2.00;;
41687;SDS011;27371;42.686;23.362;2024-02-04T05:04:51;5.15;;;2.35;;
41687;SDS011;27371;42.686;23.362;2024-02-04T05:07:16;4.40;;;2.30;;
41687;SDS011;27371;42.686;23.362;2024-02-04T05:09:41;3.97;;;2.30;;
41687;SDS011;27371;42.686;23.362;2024-02-04T05:12:08;4.80;;;3.20;;
41687;SDS011;27371;42.686;23.362;2024-02-04T05:14:33;3.80;;;2.13;;
41687;SDS011;27371;42.686;23.362;2024-02-04T05:16:59;4.60;;;2.42;;
41687;SDS011;27371;42.686;23.362;2024-02-04T05:19:25;3.63;;;2.05;;
41687;SDS011;27371;42.686;23.362;2024-02-04T05:21:50;3.88;;;1.98;;
41687;SDS011;27371;42.686;23.362;2024-02-04T05:24:15;4.55;;;2.63;;
41687;SDS011;27371;42.686;23.362;2024-02-04T05:26:41;3.30;;;2.30;;
41687;SDS011;27371;42.686;23.362;2024-02-04T05:29:06;4.30;;;2.03;;
41687;SDS011;27371;42.686;23.362;2024-02-04T05:31:32;3.17;;;2.00;;
41687;SDS011;27371;42.686;23.362;2024-02-04T05:33:57;3.55;;;2.35;;
41687;SDS011;27371;42.686;23.362;2024-02-04T05:36:22;4.60;;;2.40;;
41687;SDS011;27371;42.686;23.362;2024-02-04T05:38:48;5.30;;;3.20;;
41687;SDS011;27371;42.686;23.362;2024-02-04T05:41:13;2.65;;;1.98;;
41687;SDS011;27371;42.686;23.362;2024-02-04T05:43:39;3.95;;;2.20;;
41687;SDS011;27371;42.686;23.362;2024-02-04T05:46:04;4.80;;;2.33;;
41687;SDS011;27371;42.686;23.362;2024-02-04T05:48:29;4.65;;;2.30;;
41687;SDS011;27371;42.686;23.362;2024-02-04T05:50:55;3.90;;;2.17;;
41687;SDS011;27371;42.686;23.362;2024-02-04T05:53:20;6.57;;;3.20;;
41687;SDS011;27371;42.686;23.362;2024-02-04T05:55:46;4.80;;;2.63;;
41687;SDS011;27371;42.686;23.362;2024-02-04T05:58:11;7.45;;;2.65;;
41687;SDS011;27371;42.686;23.362;2024-02-04T06:00:39;4.63;;;2.03;;
41687;SDS011;27371;42.686;23.362;2024-02-04T06:03:04;4.43;;;2.45;;
41687;SDS011;27371;42.686;23.362;2024-02-04T06:05:30;3.80;;;2.22;;
41687;SDS011;27371;42.686;23.362;2024-02-04T06:07:55;3.10;;;2.10;;
41687;SDS011;27371;42.686;23.362;2024-02-04T06:10:21;4.68;;;2.60;;
41687;SDS011;27371;42.686;23.362;2024-02-04T06:12:46;4.15;;;2.63;;
41687;SDS011;27371;42.686;23.362;2024-02-04T06:15:12;6.15;;;3.42;;
41687;SDS011;27371;42.686;23.362;2024-02-04T06:17:38;6.13;;;3.35;;
41687;SDS011;27371;42.686;23.362;2024-02-04T06:20:03;7.70;;;3.97;;
41687;SDS011;27371;42.686;23.362;2024-02-04T06:22:29;5.93;;;3.60;;
41687;SDS011;27371;42.686;23.362;2024-02-04T06:24:54;5.25;;;2.83;;
41687;SDS011;27371;42.686;23.362;2024-02-04T06:27:20;6.07;;;3.72;;
41687;SDS011;27371;42.686;23.362;2024-02-04T06:29:45;5.10;;;3.30;;
41687;SDS011;27371;42.686;23.362;2024-02-04T06:32:10;5.78;;;2.97;;
41687;SDS011;27371;42.686;23.362;2024-02-04T06:34:36;5.93;;;3.20;;
41687;SDS011;27371;42.686;23.362;2024-02-04T06:37:02;6.63;;;3.67;;
41687;SDS011;27371;42.686;23.362;2024-02-04T06:39:27;7.25;;;4.03;;
41687;SDS011;27371;42.686;23.362;2024-02-04T06:41:52;4.47;;;2.90;;
41687;SDS011;27371;42.686;23.362;2024-02-04T06:44:18;4.53;;;2.40;;
41687;SDS011;27371;42.686;23.362;2024-02-04T06:46:43;4.15;;;2.60;;
41687;SDS011;27371;42.686;23.362;2024-02-04T06:49:08;4.65;;;2.72;;
41687;SDS011;27371;42.686;23.362;2024-02-04T06:51:34;5.00;;;2.67;;
41687;SDS011;27371;42.686;23.362;2024-02-04T06:53:59;6.63;;;3.33;;
41687;SDS011;27371;42.686;23.362;2024-02-04T06:56:26;4.40;;;2.78;;
41687;SDS011;27371;42.686;23.362;2024-02-04T06:58:51;4.20;;;2.72;;
41687;SDS011;27371;42.686;23.362;2024-02-04T07:01:17;4.70;;;2.80;;
41687;SDS011;27371;42.686;23.362;2024-02-04T07:03:42;7.38;;;2.75;;
41687;SDS011;27371;42.686;23.362;2024-02-04T07:06:07;5.05;;;2.45;;
41687;SDS011;27371;42.686;23.362;2024-02-04T07:08:33;5.75;;;2.25;;
41687;SDS011;27371;42.686;23.362;2024-02-04T07:10:59;6.35;;;2.70;;
41687;SDS011;27371;42.686;23.362;2024-02-04T07:13:24;5.45;;;2.60;;
41687;SDS011;27371;42.686;23.362;2024-02-04T07:15:49;5.32;;;2.40;;
41687;SDS011;27371;42.686;23.362;2024-02-04T07:18:15;4.95;;;2.40;;
41687;SDS011;27371;42.686;23.362;2024-02-04T07:20:42;5.18;;;2.28;;
41687;SDS011;27371;42.686;23.362;2024-02-04T07:23:07;4.45;;;2.45;;
41687;SDS011;27371;42.686;23.362;2024-02-04T07:25:33;4.32;;;2.38;;
41687;SDS011;27371;42.686;23.362;2024-02-04T07:28:00;6.93;;;2.60;;
41687;SDS011;27371;42.686;23.362;2024-02-04T07:30:26;7.55;;;2.33;;
41687;SDS011;27371;42.686;23.362;2024-02-04T07:32:51;7.47;;;2.45;;
41687;SDS011;27371;42.686;23.362;2024-02-04T07:35:16;4.90;;;2.80;;
41687;SDS011;27371;42.686;23.362;2024-02-04T07:37:42;5.80;;;2.40;;
41687;SDS011;27371;42.686;23.362;2024-02-04T07:40:07;5.93;;;2.40;;
41687;SDS011;27371;42.686;23.362;2024-02-04T07:42:33;4.95;;;2.22;;
41687;SDS011;27371;42.686;23.362;2024-02-04T07:44:58;3.92;;;1.95;;
41687;SDS011;27371;42.686;23.362;2024-02-04T07:47:23;4.18;;;2.67;;
41687;SDS011;27371;42.686;23.362;2024-02-04T07:49:49;3.80;;;2.28;;
41687;SDS011;27371;42.686;23.362;2024-02-04T07:52:15;5.53;;;2.30;;
41687;SDS011;27371;42.686;23.362;2024-02-04T07:54:40;3.78;;;2.40;;
41687;SDS011;27371;42.686;23.362;2024-02-04T07:57:05;7.18;;;2.90;;
41687;SDS011;27371;42.686;23.362;2024-02-04T07:59:31;4.97;;;2.42;;
41687;SDS011;27371;42.686;23.362;2024-02-04T08:01:56;4.22;;;2.60;;
41687;SDS011;27371;42.686;23.362;2024-02-04T08:04:21;4.80;;;2.35;;
41687;SDS011;27371;42.686;23.362;2024-02-04T08:06:47;3.30;;;2.13;;
41687;SDS011;27371;42.686;23.362;2024-02-04T08:09:12;3.55;;;2.22;;
41687;SDS011;27371;42.686;23.362;2024-02-04T08:11:38;3.53;;;2.20;;
41687;SDS011;27371;42.686;23.362;2024-02-04T08:14:03;6.90;;;2.30;;
41687;SDS011;27371;42.686;23.362;2024-02-04T08:16:28;7.30;;;2.70;;
41687;SDS011;27371;42.686;23.362;2024-02-04T08:18:54;5.68;;;2.28;;
41687;SDS011;27371;42.686;23.362;2024-02-04T08:21:19;8.07;;;2.58;;
41687;SDS011;27371;42.686;23.362;2024-02-04T08:23:44;4.82;;;2.30;;
41687;SDS011;27371;42.686;23.362;2024-02-04T08:26:10;4.70;;;2.20;;
41687;SDS011;27371;42.686;23.362;2024-02-04T08:28:35;4.47;;;2.10;;
41687;SDS011;27371;42.686;23.362;2024-02-04T08:31:01;4.00;;;1.98;;
41687;SDS011;27371;42.686;23.362;2024-02-04T08:33:26;5.63;;;2.28;;
41687;SDS011;27371;42.686;23.362;2024-02-04T08:35:52;4.68;;;2.45;;
41687;SDS011;27371;42.686;23.362;2024-02-04T08:38:17;2.90;;;2.00;;
41687;SDS011;27371;42.686;23.362;2024-02-04T08:40:42;6.82;;;2.35;;
41687;SDS011;27371;42.686;23.362;2024-02-04T08:43:08;5.22;;;2.08;;
41687;SDS011;27371;42.686;23.362;2024-02-04T08:45:33;4.65;;;1.55;;
41687;SDS011;27371;42.686;23.362;2024-02-04T08:47:58;3.55;;;1.15;;
41687;SDS011;27371;42.686;23.362;2024-02-04T08:50:24;7.60;;;2.10;;
41687;SDS011;27371;42.686;23.362;2024-02-04T08:52:49;4.05;;;1.63;;
41687;SDS011;27371;42.686;23.362;2024-02-04T08:55:15;5.10;;;2.00;;
41687;SDS011;27371;42.686;23.362;2024-02-04T08:57:40;6.30;;;3.20;;
41687;SDS011;27371;42.686;23.362;2024-02-04T09:00:06;5.90;;;2.42;;
41687;SDS011;27371;42.686;23.362;2024-02-04T09:02:36;4.90;;;2.70;;
41687;SDS011;27371;42.686;23.362;2024-02-04T09:05:02;2.95;;;1.42;;
41687;SDS011;27371;42.686;23.362;2024-02-04T09:07:27;9.55;;;1.85;;
41687;SDS011;27371;42.686;23.362;2024-02-04T09:09:53;3.78;;;1.40;;
41687;SDS011;27371;42.686;23.362;2024-02-04T09:12:18;10.05;;;2.47;;
41687;SDS011;27371;42.686;23.362;2024-02-04T09:14:43;10.63;;;1.52;;
41687;SDS011;27371;42.686;23.362;2024-02-04T09:17:09;7.50;;;1.80;;
41687;SDS011;27371;42.686;23.362;2024-02-04T09:19:35;4.13;;;1.45;;
41687;SDS011;27371;42.686;23.362;2024-02-04T09:22:01;6.47;;;2.10;;
41687;SDS011;27371;42.686;23.362;2024-02-04T09:24:27;5.28;;;1.90;;
41687;SDS011;27371;42.686;23.362;2024-02-04T09:26:52;2.67;;;1.60;;
41687;SDS011;27371;42.686;23.362;2024-02-04T09:29:17;2.50;;;1.50;;
41687;SDS011;27371;42.686;23.362;2024-02-04T09:31:42;5.13;;;1.70;;
41687;SDS011;27371;42.686;23.362;2024-02-04T09:34:08;2.65;;;1.35;;
41687;SDS011;27371;42.686;23.362;2024-02-04T09:36:33;6.68;;;1.48;;
41687;SDS011;27371;42.686;23.362;2024-02-04T09:38:59;3.83;;;1.13;;
41687;SDS011;27371;42.686;23.362;2024-02-04T09:41:25;5.57;;;1.30;;
41687;SDS011;27371;42.686;23.362;2024-02-04T09:43:51;4.20;;;1.20;;
41687;SDS011;27371;42.686;23.362;2024-02-04T09:46:17;2.08;;;1.13;;
41687;SDS011;27371;42.686;23.362;2024-02-04T09:48:43;3.10;;;1.55;;
41687;SDS011;27371;42.686;23.362;2024-02-04T09:51:09;3.10;;;1.67;;
41687;SDS011;27371;42.686;23.362;2024-02-04T09:53:35;5.75;;;2.53;;
41687;SDS011;27371;42.686;23.362;2024-02-04T09:56:01;4.50;;;1.95;;
41687;SDS011;27371;42.686;23.362;2024-02-04T09:58:27;4.40;;;1.35;;
41687;SDS011;27371;42.686;23.362;2024-02-04T10:00:52;5.30;;;1.58;;
41687;SDS011;27371;42.686;23.362;2024-02-04T10:03:18;3.75;;;1.55;;
41687;SDS011;27371;42.686;23.362;2024-02-04T10:05:47;2.35;;;1.30;;
41687;SDS011;27371;42.686;23.362;2024-02-04T10:08:13;2.22;;;1.30;;
41687;SDS011;27371;42.686;23.362;2024-02-04T10:10:39;4.85;;;1.75;;
41687;SDS011;27371;42.686;23.362;2024-02-04T10:13:08;4.03;;;2.00;;
41687;SDS011;27371;42.686;23.362;2024-02-04T10:15:33;5.13;;;2.22;;
41687;SDS011;27371;42.686;23.362;2024-02-04T10:17:59;6.50;;;2.10;;
41687;SDS011;27371;42.686;23.362;2024-02-04T10:20:24;3.55;;;1.20;;
41687;SDS011;27371;42.686;23.362;2024-02-04T10:22:49;8.35;;;1.50;;
41687;SDS011;27371;42.686;23.362;2024-02-04T10:25:15;2.47;;;1.33;;
41687;SDS011;27371;42.686;23.362;2024-02-04T10:27:41;1.98;;;0.95;;
41687;SDS011;27371;42.686;23.362;2024-02-04T10:30:07;3.90;;;1.08;;
41687;SDS011;27371;42.686;23.362;2024-02-04T10:32:33;2.60;;;0.90;;
41687;SDS011;27371;42.686;23.362;2024-02-04T10:34:58;4.72;;;2.58;;
41687;SDS011;27371;42.686;23.362;2024-02-04T10:37:25;3.22;;;1.30;;
41687;SDS011;27371;42.686;23.362;2024-02-04T10:39:51;5.95;;;1.10;;
41687;SDS011;27371;42.686;23.362;2024-02-04T10:42:16;3.63;;;1.33;;
41687;SDS011;27371;42.686;23.362;2024-02-04T10:44:42;2.60;;;1.20;;
41687;SDS011;27371;42.686;23.362;2024-02-04T10:47:10;5.07;;;1.33;;
41687;SDS011;27371;42.686;23.362;2024-02-04T10:49:35;2.35;;;1.30;;
41687;SDS011;27371;42.686;23.362;2024-02-04T10:52:03;3.42;;;1.30;;
41687;SDS011;27371;42.686;23.362;2024-02-04T10:54:31;2.20;;;1.08;;
41687;SDS011;27371;42.686;23.362;2024-02-04T10:57:01;4.30;;;1.45;;
41687;SDS011;27371;42.686;23.362;2024-02-04T10:59:28;4.35;;;2.05;;
41687;SDS011;27371;42.686;23.362;2024-02-04T11:01:55;2.75;;;1.42;;
41687;SDS011;27371;42.686;23.362;2024-02-04T11:04:21;3.17;;;1.70;;
41687;SDS011;27371;42.686;23.362;2024-02-04T11:06:47;5.63;;;1.27;;
41687;SDS011;27371;42.686;23.362;2024-02-04T11:09:13;1.92;;;1.10;;
41687;SDS011;27371;42.686;23.362;2024-02-04T11:11:39;1.52;;;0.88;;
41687;SDS011;27371;42.686;23.362;2024-02-04T11:14:06;4.68;;;1.45;;
41687;SDS011;27371;42.686;23.362;2024-02-04T11:19:08;1.80;;;0.98;;
41687;SDS011;27371;42.686;23.362;2024-02-04T11:21:48;5.95;;;1.30;;
41687;SDS011;27371;42.686;23.362;2024-02-04T11:26:58;3.33;;;1.17;;
41687;SDS011;27371;42.686;23.362;2024-02-04T11:29:23;3.90;;;2.10;;
41687;SDS011;27371;42.686;23.362;2024-02-04T11:31:49;7.85;;;1.08;;
41687;SDS011;27371;42.686;23.362;2024-02-04T11:34:16;1.80;;;0.85;;
41687;SDS011;27371;42.686;23.362;2024-02-04T11:36:41;1.70;;;1.00;;
41687;SDS011;27371;42.686;23.362;2024-02-04T11:39:13;3.05;;;1.70;;
41687;SDS011;27371;42.686;23.362;2024-02-04T11:41:45;3.20;;;1.42;;
41687;SDS011;27371;42.686;23.362;2024-02-04T11:44:12;2.85;;;1.08;;
41687;SDS011;27371;42.686;23.362;2024-02-04T11:46:37;3.83;;;1.10;;
41687;SDS011;27371;42.686;23.362;2024-02-04T11:49:03;2.28;;;1.05;;
41687;SDS011;27371;42.686;23.362;2024-02-04T11:51:29;1.55;;;0.90;;
41687;SDS011;27371;42.686;23.362;2024-02-04T11:53:55;2.28;;;1.10;;
41687;SDS011;27371;42.686;23.362;2024-02-04T11:56:21;1.58;;;1.00;;
41687;SDS011;27371;42.686;23.362;2024-02-04T11:58:46;1.90;;;0.90;;
41687;SDS011;27371;42.686;23.362;2024-02-04T12:01:12;1.60;;;0.80;;
41687;SDS011;27371;42.686;23.362;2024-02-04T12:03:37;3.30;;;1.20;;
41687;SDS011;27371;42.686;23.362;2024-02-04T12:06:03;7.00;;;2.85;;
41687;SDS011;27371;42.686;23.362;2024-02-04T12:08:30;7.15;;;2.88;;
41687;SDS011;27371;42.686;23.362;2024-02-04T12:10:56;6.28;;;2.67;;
41687;SDS011;27371;42.686;23.362;2024-02-04T12:13:23;3.75;;;1.63;;
41687;SDS011;27371;42.686;23.362;2024-02-04T12:15:48;5.85;;;1.25;;
41687;SDS011;27371;42.686;23.362;2024-02-04T12:18:14;3.50;;;1.05;;
41687;SDS011;27371;42.686;23.362;2024-02-04T12:20:41;2.88;;;1.25;;
41687;SDS011;27371;42.686;23.362;2024-02-04T12:23:06;1.75;;;0.80;;
41687;SDS011;27371;42.686;23.362;2024-02-04T12:25:32;2.10;;;0.80;;
41687;SDS011;27371;42.686;23.362;2024-02-04T12:27:58;2.00;;;1.00;;
41687;SDS011;27371;42.686;23.362;2024-02-04T12:30:24;1.92;;;1.20;;
41687;SDS011;27371;42.686;23.362;2024-02-04T12:32:59;1.65;;;1.00;;
41687;SDS011;27371;42.686;23.362;2024-02-04T12:35:28;2.75;;;1.00;;
41687;SDS011;27371;42.686;23.362;2024-02-04T12:37:53;9.65;;;1.15;;
41687;SDS011;27371;42.686;23.362;2024-02-04T12:40:22;1.42;;;0.93;;
41687;SDS011;27371;42.686;23.362;2024-02-04T12:43:00;1.63;;;1.20;;
41687;SDS011;27371;42.686;23.362;2024-02-04T12:45:26;3.05;;;1.00;;
41687;SDS011;27371;42.686;23.362;2024-02-04T12:47:52;2.38;;;1.27;;
41687;SDS011;27371;42.686;23.362;2024-02-04T12:50:18;2.55;;;1.20;;
41687;SDS011;27371;42.686;23.362;2024-02-04T12:52:45;4.25;;;2.50;;
41687;SDS011;27371;42.686;23.362;2024-02-04T12:55:20;2.83;;;1.63;;
41687;SDS011;27371;42.686;23.362;2024-02-04T12:57:45;3.08;;;1.60;;
41687;SDS011;27371;42.686;23.362;2024-02-04T13:00:11;2.47;;;1.30;;
41687;SDS011;27371;42.686;23.362;2024-02-04T13:02:37;4.32;;;1.30;;
41687;SDS011;27371;42.686;23.362;2024-02-04T13:05:02;2.83;;;1.42;;
41687;SDS011;27371;42.686;23.362;2024-02-04T13:07:28;2.97;;;1.10;;
41687;SDS011;27371;42.686;23.362;2024-02-04T13:09:59;2.03;;;1.30;;
41687;SDS011;27371;42.686;23.362;2024-02-04T13:12:25;6.45;;;2.65;;
41687;SDS011;27371;42.686;23.362;2024-02-04T13:14:50;3.67;;;2.22;;
41687;SDS011;27371;42.686;23.362;2024-02-04T13:17:16;4.90;;;4.03;;
41687;SDS011;27371;42.686;23.362;2024-02-04T13:19:41;4.47;;;2.05;;
41687;SDS011;27371;42.686;23.362;2024-02-04T13:22:07;3.92;;;1.70;;
41687;SDS011;27371;42.686;23.362;2024-02-04T13:24:36;4.28;;;2.05;;
41687;SDS011;27371;42.686;23.362;2024-02-04T13:27:02;3.35;;;1.70;;
41687;SDS011;27371;42.686;23.362;2024-02-04T13:29:28;3.00;;;1.30;;
41687;SDS011;27371;42.686;23.362;2024-02-04T13:31:53;1.98;;;1.10;;
41687;SDS011;27371;42.686;23.362;2024-02-04T13:34:19;1.50;;;1.13;;
41687;SDS011;27371;42.686;23.362;2024-02-04T13:36:45;5.20;;;1.40;;
41687;SDS011;27371;42.686;23.362;2024-02-04T13:39:11;5.85;;;2.67;;
41687;SDS011;27371;42.686;23.362;2024-02-04T13:41:38;2.50;;;1.30;;
41687;SDS011;27371;42.686;23.362;2024-02-04T13:44:03;6.03;;;2.03;;
41687;SDS011;27371;42.686;23.362;2024-02-04T13:46:29;2.58;;;1.30;;
41687;SDS011;27371;42.686;23.362;2024-02-04T13:48:54;4.55;;;1.50;;
41687;SDS011;27371;42.686;23.362;2024-02-04T13:51:19;2.55;;;1.17;;
41687;SDS011;27371;42.686;23.362;2024-02-04T13:53:45;1.98;;;1.00;;
41687;SDS011;27371;42.686;23.362;2024-02-04T13:56:10;1.75;;;1.10;;
41687;SDS011;27371;42.686;23.362;2024-02-04T13:58:36;3.42;;;1.70;;
41687;SDS011;27371;42.686;23.362;2024-02-04T14:01:01;3.05;;;1.40;;
41687;SDS011;27371;42.686;23.362;2024-02-04T14:03:26;2.35;;;1.00;;
41687;SDS011;27371;42.686;23.362;2024-02-04T14:05:52;2.33;;;1.30;;
41687;SDS011;27371;42.686;23.362;2024-02-04T14:08:17;2.75;;;0.93;;
41687;SDS011;27371;42.686;23.362;2024-02-04T14:10:42;2.35;;;1.30;;
41687;SDS011;27371;42.686;23.362;2024-02-04T14:13:08;1.42;;;1.00;;
41687;SDS011;27371;42.686;23.362;2024-02-04T14:15:33;2.65;;;1.10;;
41687;SDS011;27371;42.686;23.362;2024-02-04T14:17:59;1.50;;;1.00;;
41687;SDS011;27371;42.686;23.362;2024-02-04T14:20:24;3.15;;;1.20;;
41687;SDS011;27371;42.686;23.362;2024-02-04T14:22:50;2.60;;;1.50;;
41687;SDS011;27371;42.686;23.362;2024-02-04T14:25:16;2.95;;;1.20;;
41687;SDS011;27371;42.686;23.362;2024-02-04T14:27:41;2.30;;;1.20;;
41687;SDS011;27371;42.686;23.362;2024-02-04T14:30:06;4.57;;;1.35;;
41687;SDS011;27371;42.686;23.362;2024-02-04T14:32:32;2.13;;;1.10;;
41687;SDS011;27371;42.686;23.362;2024-02-04T14:34:57;2.08;;;1.20;;
41687;SDS011;27371;42.686;23.362;2024-02-04T14:37:23;2.72;;;1.10;;